ZMUB/ULN METAR and TAF weather

Enter ICAO airport designator
Station Type Date Time Source
ZMUB METAR 2020/09/21 06:00 UTC NOAA

ZMUB 210600Z 25004MPS 210V290 9999 SCT033 14/M02 Q1024 NOSIG RMK QFE660.1 32 MOP


Station Type Date Time Source
ZMUB Decoded METAR 2020/09/21 06:00 UTC NOAA

Ulan-Bator, Mongolia (ZMUB) 47-51N 106-46E
Sep 21, 2020 - 02:00 AM EDT / 2020.09.21 0600 UTC
Wind: from the WSW (250 degrees) at 9 MPH (8 KT) (direction variable):0
Visibility: greater than 7 mile(s):0
Sky conditions: partly cloudy
Temperature: 57 F (14 C)
Dew Point: 28 F (-2 C)
Relative Humidity: 33%
Pressure (altimeter): 30.24 in. Hg (1024 hPa)
ob: ZMUB 210600Z 25004MPS 210V290 9999 SCT033 14/M02 Q1024 NOSIG RMK QFE660.1 32 MOP
cycle: 6

Station Type Date Time Source
ZMUB TAF 2020/09/21 06:42 UTC NOAA

TAF TAF ZMUB 210440Z 2106/2212 VRB02MPS 9999 SCT033 TX15/2107Z TNM02/2121Z

Example: see airport list